Time;durP1;ratioP1;P1;durP2;ratioP2;P2;SDS_P1;SDS_P2;PMS_P1;PMS_P2;Temp;Humidity;BMP_temperature;BMP_pressure;BME280_temperature;BME280_humidity;BME280_pressure;Samples;Min_cycle;Max_cycle;Signal;HPM_P1;HPM_P2
2021/12/29 00:01:56;;;;;;;6.07;3.77;;;;;;;3.45;100.00;96174.63;4975044;28;20448;-38
2021/12/29 00:04:24;;;;;;;7.20;4.80;;;;;;;3.41;100.00;96176.06;4974735;28;20809;-38
2021/12/29 00:06:51;;;;;;;6.63;4.27;;;;;;;3.47;100.00;96188.34;4974899;28;20542;-36
2021/12/29 00:09:18;;;;;;;7.03;3.77;;;;;;;3.46;100.00;96182.31;4974729;28;20444;-37
2021/12/29 00:11:47;;;;;;;6.87;4.27;;;;;;;3.49;100.00;96183.72;4974939;28;20483;-38
2021/12/29 00:14:14;;;;;;;5.33;3.40;;;;;;;3.44;100.00;96194.81;4974675;28;20440;-38
2021/12/29 00:16:42;;;;;;;13.83;5.03;;;;;;;3.40;100.00;96184.91;4974939;28;20797;-38
2021/12/29 00:19:09;;;;;;;14.23;4.60;;;;;;;3.38;100.00;96189.59;4974555;28;20449;-37
2021/12/29 00:21:37;;;;;;;11.50;4.80;;;;;;;3.33;100.00;96192.00;4974564;28;20444;-37
2021/12/29 00:24:07;;;;;;;13.83;6.17;;;;;;;3.34;100.00;96188.38;4974782;28;20449;-38
2021/12/29 00:26:35;;;;;;;9.80;6.83;;;;;;;3.35;100.00;96190.00;4974693;28;20448;-37
2021/12/29 00:29:04;;;;;;;38.53;16.00;;;;;;;3.41;100.00;96189.16;4974733;28;20782;-38
2021/12/29 00:31:33;;;;;;;19.07;9.33;;;;;;;3.47;100.00;96190.97;4974487;28;20452;-38
2021/12/29 00:34:00;;;;;;;22.30;9.20;;;;;;;3.52;100.00;96196.41;4974456;28;20448;-38
2021/12/29 00:36:28;;;;;;;11.07;6.00;;;;;;;3.55;100.00;96193.38;4974700;28;20773;-37
2021/12/29 00:38:55;;;;;;;12.63;4.87;;;;;;;3.58;100.00;96192.97;4974667;28;20809;-38
2021/12/29 00:41:23;;;;;;;15.13;5.33;;;;;;;3.59;100.00;96181.47;4974376;28;20453;-37
2021/12/29 00:43:50;;;;;;;7.50;4.13;;;;;;;3.58;100.00;96179.03;4974341;28;20452;-37
2021/12/29 00:46:19;;;;;;;7.90;4.17;;;;;;;3.42;100.00;96149.59;4974350;28;20482;-36
2021/12/29 00:48:47;;;;;;;7.60;4.20;;;;;;;3.60;100.00;96171.75;4974262;28;20498;-37
2021/12/29 00:51:15;;;;;;;16.47;4.63;;;;;;;3.62;100.00;96173.16;4974677;28;20543;-38
2021/12/29 00:53:43;;;;;;;10.83;5.33;;;;;;;3.63;100.00;96177.38;4974179;28;20845;-37
2021/12/29 00:56:11;;;;;;;9.50;3.47;;;;;;;3.51;100.00;96150.19;4974571;28;20456;-38
2021/12/29 00:58:38;;;;;;;7.40;4.80;;;;;;;3.71;100.00;96180.81;4974148;28;20455;-37
2021/12/29 01:01:06;;;;;;;9.17;4.77;;;;;;;3.73;100.00;96176.16;4974160;28;20453;-38
2021/12/29 01:03:36;;;;;;;6.07;3.83;;;;;;;3.71;100.00;96162.44;4974159;28;20491;-38
2021/12/29 01:06:04;;;;;;;11.60;5.43;;;;;;;3.69;100.00;96160.81;4977894;28;20433;-37
2021/12/29 01:08:31;;;;;;;6.80;3.80;;;;;;;3.68;100.00;96151.34;4977709;28;20503;-38
2021/12/29 01:10:58;;;;;;;9.30;5.70;;;;;;;3.68;100.00;96153.97;4978066;28;20801;-39
2021/12/29 01:13:30;;;;;;;7.73;3.77;;;;;;;3.71;100.00;96151.94;4977686;28;20455;-38
2021/12/29 01:16:15;;;;;;;6.30;3.30;;;;;;;3.73;100.00;96144.66;4977645;28;20441;-38
2021/12/29 01:18:44;;;;;;;11.97;5.37;;;;;;;3.57;100.00;96135.41;4977872;28;20456;-38
2021/12/29 01:21:12;;;;;;;6.20;4.20;;;;;;;3.66;100.00;96155.97;4977877;28;20475;-37
2021/12/29 01:23:40;;;;;;;7.67;3.43;;;;;;;3.51;100.00;96158.06;4977732;28;20447;-38
2021/12/29 01:26:07;;;;;;;6.30;3.43;;;;;;;3.49;100.00;96155.63;4977460;28;20448;-37
2021/12/29 01:28:34;;;;;;;5.93;4.83;;;;;;;3.52;100.00;96149.16;4977388;28;20495;-37
2021/12/29 01:31:01;;;;;;;10.33;5.00;;;;;;;3.52;100.00;96146.53;4977355;28;20444;-37
2021/12/29 01:33:29;;;;;;;9.50;4.10;;;;;;;3.54;100.00;96149.75;4977317;28;20448;-38
2021/12/29 01:35:57;;;;;;;6.50;3.23;;;;;;;3.53;100.00;96148.16;4977279;28;20454;-37
2021/12/29 01:38:25;;;;;;;9.27;4.53;;;;;;;3.49;100.00;96139.88;4977580;28;20463;-38
2021/12/29 01:40:52;;;;;;;7.17;4.13;;;;;;;3.62;100.00;96144.28;4977579;28;20444;-38
2021/12/29 01:43:20;;;;;;;10.00;5.00;;;;;;;3.66;100.00;96139.44;4977467;28;20451;-37
2021/12/29 01:45:48;;;;;;;12.77;4.60;;;;;;;3.55;100.00;96116.44;4977097;28;20941;-37
2021/12/29 01:48:16;;;;;;;6.47;4.37;;;;;;;3.73;100.00;96134.16;4976982;28;20492;-38
2021/12/29 01:50:49;;;;;;;6.40;4.00;;;;;;;3.73;100.00;96144.66;4977029;28;20527;-38
2021/12/29 01:53:23;;;;;;;9.87;6.47;;;;;;;3.74;100.00;96141.00;4976929;28;20849;-37
2021/12/29 01:55:52;;;;;;;8.67;4.97;;;;;;;3.69;100.00;96134.56;4977098;28;20980;-37
2021/12/29 01:58:20;;;;;;;7.83;3.73;;;;;;;3.61;100.00;96132.16;4977241;28;20452;-37
2021/12/29 02:00:48;;;;;;;5.60;3.67;;;;;;;3.61;100.00;96147.09;4977186;28;20448;-38
2021/12/29 02:03:16;;;;;;;9.40;4.00;;;;;;;3.60;100.00;96142.88;4976855;28;20457;-37
2021/12/29 02:05:43;;;;;;;12.53;5.30;;;;;;;3.39;100.00;96130.84;4976825;28;20448;-38
2021/12/29 02:08:11;;;;;;;13.50;5.07;;;;;;;3.37;100.00;96130.22;4976977;28;20496;-38
2021/12/29 02:10:45;;;;;;;6.03;3.73;;;;;;;3.50;100.00;96145.94;4976677;28;20480;-36
2021/12/29 02:13:13;;;;;;;8.73;5.47;;;;;;;3.42;100.00;96138.28;4976650;28;20436;-38
2021/12/29 02:15:41;;;;;;;10.47;4.67;;;;;;;3.40;100.00;96145.56;4976601;28;20449;-37
2021/12/29 02:18:13;;;;;;;7.17;4.60;;;;;;;3.32;100.00;96143.19;4976542;28;20452;-36
2021/12/29 02:20:46;;;;;;;7.17;4.20;;;;;;;3.13;100.00;96140.38;4976553;28;20925;-37
2021/12/29 02:23:17;;;;;;;6.70;4.00;;;;;;;3.09;100.00;96123.44;4976791;28;20829;-38
2021/12/29 02:25:50;;;;;;;4.20;3.23;;;;;;;3.08;100.00;96121.84;4976470;28;20455;-37
2021/12/29 02:28:22;;;;;;;4.90;3.27;;;;;;;3.10;100.00;96124.25;4976810;28;20484;-37
2021/12/29 02:30:50;;;;;;;13.70;7.90;;;;;;;3.16;100.00;96124.25;4976427;28;20428;-38
2021/12/29 02:33:18;;;;;;;10.50;6.10;;;;;;;3.23;100.00;96121.59;4976304;28;20945;-37
2021/12/29 02:35:47;;;;;;;12.53;6.40;;;;;;;3.28;100.00;96112.09;4976249;28;20452;-37
2021/12/29 02:38:23;;;;;;;15.17;10.20;;;;;;;3.32;100.00;96101.19;4976097;28;20444;-37
2021/12/29 02:40:52;;;;;;;12.83;6.80;;;;;;;3.28;100.00;96101.59;4976507;28;20499;-38
2021/12/29 02:43:22;;;;;;;9.57;6.40;;;;;;;3.25;100.00;96107.28;4976056;28;20507;-38
2021/12/29 02:45:54;;;;;;;7.10;4.87;;;;;;;3.23;100.00;96114.53;4976109;28;20452;-37
2021/12/29 02:48:23;;;;;;;4.43;3.93;;;;;;;3.11;100.00;96104.88;4975945;28;20914;-39
2021/12/29 02:50:55;;;;;;;6.27;4.37;;;;;;;2.95;100.00;96106.13;4975924;28;20445;-37
2021/12/29 02:53:23;;;;;;;7.53;4.33;;;;;;;2.86;100.00;96098.47;4975712;28;21042;-36
2021/12/29 02:55:50;;;;;;;11.53;6.17;;;;;;;2.70;100.00;96093.66;4975802;28;20444;-37
2021/12/29 02:58:17;;;;;;;4.80;3.80;;;;;;;2.63;100.00;96090.25;4975807;28;20448;-37
2021/12/29 03:00:44;;;;;;;11.20;4.10;;;;;;;2.37;100.00;96094.47;4973409;28;20461;-36
2021/12/29 03:03:16;;;;;;;5.90;3.73;;;;;;;2.32;100.00;96090.84;4972183;28;20929;-38
2021/12/29 03:05:44;;;;;;;5.27;2.93;;;;;;;2.24;100.00;96089.25;4975943;28;20455;-37
2021/12/29 03:08:13;;;;;;;6.53;3.77;;;;;;;2.09;100.00;96085.97;4975468;28;20499;-37
2021/12/29 03:10:41;;;;;;;5.10;3.57;;;;;;;1.98;100.00;96075.13;4974865;28;20811;-36
2021/12/29 03:13:08;;;;;;;7.30;4.30;;;;;;;1.98;100.00;96085.59;4956160;28;20456;-37
2021/12/29 03:15:36;;;;;;;7.37;4.53;;;;;;;2.02;100.00;96086.81;4956167;28;20480;-38
2021/12/29 03:18:04;;;;;;;10.57;5.10;;;;;;;2.02;100.00;96076.34;4956899;28;20462;-38
2021/12/29 03:20:31;;;;;;;6.57;3.13;;;;;;;1.87;100.00;96051.31;4956347;28;20446;-38
2021/12/29 03:22:59;;;;;;;9.40;2.97;;;;;;;2.01;100.00;96072.09;4955986;28;20460;-38
2021/12/29 03:25:28;;;;;;;4.47;3.10;;;;;;;1.91;100.00;96063.81;4955914;28;20536;-37
2021/12/29 03:27:59;;;;;;;16.00;6.20;;;;;;;2.06;100.00;96079.34;4955016;28;20496;-38
2021/12/29 03:30:27;;;;;;;10.43;5.57;;;;;;;2.13;100.00;96074.09;4956135;28;20445;-36
2021/12/29 03:33:03;;;;;;;7.80;4.60;;;;;;;2.15;100.00;96078.16;4955847;28;20458;-38
2021/12/29 03:35:32;;;;;;;6.43;3.73;;;;;;;2.04;100.00;96065.63;4955375;28;20441;-37
2021/12/29 03:38:01;;;;;;;11.43;3.97;;;;;;;2.05;100.00;96065.44;4954689;28;20461;-38
2021/12/29 03:40:29;;;;;;;8.43;4.30;;;;;;;2.09;100.00;96080.75;4954776;28;20454;-38
2021/12/29 03:42:57;;;;;;;8.57;5.10;;;;;;;2.20;100.00;96067.06;4955702;28;20449;-37
2021/12/29 03:45:25;;;;;;;22.00;9.97;;;;;;;2.28;100.00;96069.50;4956004;28;20937;-37
2021/12/29 03:47:52;;;;;;;15.60;9.63;;;;;;;2.25;100.00;96057.59;4955929;28;20500;-38
2021/12/29 03:50:19;;;;;;;16.13;6.10;;;;;;;2.33;100.00;96067.06;4955932;28;20805;-37
2021/12/29 03:52:47;;;;;;;14.23;6.13;;;;;;;2.36;100.00;96060.63;4955382;28;20478;-38
2021/12/29 03:55:14;;;;;;;20.00;6.37;;;;;;;2.34;100.00;96045.09;4955881;28;20449;-37
2021/12/29 03:57:43;;;;;;;21.97;6.33;;;;;;;2.30;100.00;96030.78;4955727;28;20455;-37
2021/12/29 04:00:15;;;;;;;13.30;5.90;;;;;;;2.16;100.00;96047.53;4955506;28;20452;-38
2021/12/29 04:02:44;;;;;;;10.00;4.10;;;;;;;2.08;100.00;96047.72;4955542;28;20447;-37
2021/12/29 04:05:13;;;;;;;48.63;12.00;;;;;;;1.88;100.00;96006.63;4955452;28;20445;-38
2021/12/29 04:07:40;;;;;;;14.97;5.47;;;;;;;1.94;100.00;96031.22;4955317;28;20453;-37
2021/12/29 04:10:10;;;;;;;36.00;6.67;;;;;;;1.84;100.00;96027.16;4955357;28;21001;-37
2021/12/29 04:12:39;;;;;;;17.67;7.20;;;;;;;1.82;100.00;96023.94;4955314;28;20938;-38
2021/12/29 04:15:10;;;;;;;18.60;9.87;;;;;;;1.85;100.00;96030.59;4955170;28;20454;-37
2021/12/29 04:17:38;;;;;;;21.77;6.33;;;;;;;1.83;100.00;96020.31;4955369;28;20513;-38
2021/12/29 04:22:52;;;;;;;35.87;7.70;;;;;;;1.79;100.00;96005.22;4955339;29;20421;-38
2021/12/29 04:25:23;;;;;;;28.97;10.43;;;;;;;1.76;100.00;96013.44;4955238;28;20528;-38
2021/12/29 04:27:51;;;;;;;72.40;14.77;;;;;;;1.72;100.00;96022.69;4955436;28;20851;-37
2021/12/29 04:30:21;;;;;;;36.50;6.90;;;;;;;1.59;100.00;96005.16;4955461;28;20476;-38
2021/12/29 04:32:50;;;;;;;63.80;11.53;;;;;;;1.70;100.00;96029.94;4955465;28;20453;-37
2021/12/29 04:35:17;;;;;;;51.83;10.37;;;;;;;1.64;100.00;96021.09;4955204;28;20911;-37
2021/12/29 04:37:45;;;;;;;88.80;9.57;;;;;;;1.64;100.00;96021.91;4955633;28;20949;-37
2021/12/29 04:40:12;;;;;;;28.60;9.10;;;;;;;1.57;100.00;96017.66;4959191;28;20783;-37
2021/12/29 04:42:40;;;;;;;25.87;6.80;;;;;;;1.66;100.00;96018.25;4958967;28;20532;-37
2021/12/29 04:45:08;;;;;;;29.60;9.47;;;;;;;1.69;100.00;96023.13;4958904;28;20891;-37
2021/12/29 04:47:40;;;;;;;24.90;7.20;;;;;;;1.72;100.00;96027.94;4958878;28;20445;-37
2021/12/29 04:50:18;;;;;;;60.40;8.40;;;;;;;1.74;100.00;96034.63;4958886;28;20444;-37
2021/12/29 04:52:45;;;;;;;15.93;5.23;;;;;;;1.69;100.00;96037.00;4958615;28;20568;-37
2021/12/29 04:55:13;;;;;;;41.30;7.20;;;;;;;1.70;100.00;96050.88;4959051;28;20445;-37
2021/12/29 04:57:40;;;;;;;22.93;5.23;;;;;;;1.71;100.00;96047.28;4959460;28;20446;-38
2021/12/29 05:00:09;;;;;;;10.50;6.37;;;;;;;1.70;100.00;96046.47;4959428;28;20564;-38
2021/12/29 05:02:38;;;;;;;36.03;9.30;;;;;;;1.80;100.00;96046.09;4977593;28;20448;-37
2021/12/29 05:05:18;;;;;;;42.90;10.63;;;;;;;1.86;100.00;96039.25;4978131;28;20456;-37
2021/12/29 05:10:34;;;;;;;54.87;12.83;;;;;;;1.81;100.00;96042.47;4960855;28;20511;-38
2021/12/29 05:13:01;;;;;;;17.83;6.50;;;;;;;1.71;100.00;96015.88;4978166;28;20482;-38
2021/12/29 05:15:28;;;;;;;15.07;9.33;;;;;;;1.90;100.00;96030.00;4977789;28;20448;-37
2021/12/29 05:17:58;;;;;;;14.60;7.63;;;;;;;1.94;100.00;96029.41;4977818;28;20456;-37
2021/12/29 05:20:28;;;;;;;12.77;5.63;;;;;;;1.96;100.00;96035.22;4977700;28;20960;-38
2021/12/29 05:22:59;;;;;;;6.33;4.90;;;;;;;1.92;100.00;96048.94;4977547;28;20815;-36
2021/12/29 05:25:27;;;;;;;41.40;25.57;;;;;;;1.88;100.00;96048.50;4977541;28;20443;-37
2021/12/29 05:27:55;;;;;;;44.73;27.43;;;;;;;1.88;100.00;96061.59;4976261;28;20535;-36
2021/12/29 05:30:23;;;;;;;10.00;7.50;;;;;;;1.92;100.00;96048.94;4976614;28;20451;-38
2021/12/29 05:32:51;;;;;;;14.43;6.00;;;;;;;1.72;100.00;95992.13;4977386;28;20963;-37
2021/12/29 05:35:20;;;;;;;9.80;6.53;;;;;;;1.71;100.00;96016.66;4977653;28;20456;-36
2021/12/29 05:37:47;;;;;;;30.80;15.10;;;;;;;1.57;100.00;96021.09;4977305;28;20451;-37
2021/12/29 05:40:15;;;;;;;28.43;15.67;;;;;;;1.58;100.00;96032.34;4978039;28;20458;-37
2021/12/29 05:42:43;;;;;;;21.50;9.97;;;;;;;1.55;100.00;96022.28;4976202;28;20532;-35
2021/12/29 05:45:13;;;;;;;15.37;7.30;;;;;;;1.45;100.00;96025.28;4976397;28;20551;-35
2021/12/29 05:47:41;;;;;;;11.90;6.20;;;;;;;1.51;100.00;96034.16;4976669;28;20440;-36
2021/12/29 05:50:11;;;;;;;17.53;7.03;;;;;;;1.52;100.00;96043.59;4976179;28;20662;-36
2021/12/29 05:52:40;;;;;;;11.30;7.23;;;;;;;1.43;100.00;96045.59;4974636;28;20495;-36
2021/12/29 05:55:09;;;;;;;11.53;6.10;;;;;;;1.45;100.00;96053.25;4976828;28;20811;-37
2021/12/29 05:57:36;;;;;;;21.03;5.53;;;;;;;1.54;100.00;96049.44;4973916;28;20443;-36
2021/12/29 06:00:04;;;;;;;36.30;16.77;;;;;;;1.45;100.00;96058.50;4976448;28;20448;-35
2021/12/29 06:02:32;;;;;;;17.07;9.40;;;;;;;1.43;100.00;96071.75;4976362;28;20980;-35
2021/12/29 06:04:59;;;;;;;12.03;7.20;;;;;;;1.57;100.00;96080.44;4975089;28;20511;-36
2021/12/29 06:07:27;;;;;;;24.37;10.47;;;;;;;1.58;100.00;96077.63;4976302;28;20433;-35
2021/12/29 06:09:56;;;;;;;36.10;21.53;;;;;;;1.54;100.00;96068.56;4973584;28;20488;-36
2021/12/29 06:12:23;;;;;;;37.97;21.37;;;;;;;1.55;100.00;96075.44;4976181;28;20531;-35
2021/12/29 06:14:51;;;;;;;20.30;12.67;;;;;;;1.62;100.00;96086.72;4975075;28;20437;-35
2021/12/29 06:17:18;;;;;;;47.07;24.00;;;;;;;1.75;100.00;96098.22;4976162;28;20440;-35
2021/12/29 06:19:46;;;;;;;42.97;18.17;;;;;;;1.90;100.00;96091.00;4976006;28;20433;-38
2021/12/29 06:22:18;;;;;;;45.30;19.87;;;;;;;2.05;100.00;96096.88;4975434;28;20464;-36
2021/12/29 06:24:51;;;;;;;31.07;17.33;;;;;;;2.13;100.00;96092.44;4975960;28;20476;-35
2021/12/29 06:27:21;;;;;;;13.33;5.17;;;;;;;2.20;100.00;96091.44;4976163;28;20884;-37
2021/12/29 06:29:49;;;;;;;7.80;4.20;;;;;;;2.27;100.00;96101.13;4976134;28;20483;-36
2021/12/29 06:32:18;;;;;;;37.77;18.70;;;;;;;2.36;100.00;96095.47;4975795;28;20807;-35
2021/12/29 06:34:45;;;;;;;19.27;12.57;;;;;;;2.31;100.00;96078.78;4976120;28;20503;-36
2021/12/29 06:37:13;;;;;;;12.10;8.70;;;;;;;2.56;100.00;96113.84;4975797;28;20440;-38
2021/12/29 06:39:41;;;;;;;14.83;8.80;;;;;;;2.63;100.00;96108.59;4975781;28;20469;-39
2021/12/29 06:42:09;;;;;;;25.83;13.00;;;;;;;2.65;100.00;96096.88;4976073;28;20451;-38
2021/12/29 06:44:38;;;;;;;32.87;16.60;;;;;;;2.65;100.00;96096.09;4976027;28;20507;-37
2021/12/29 06:47:06;;;;;;;39.30;21.20;;;;;;;2.66;100.00;96119.47;4976028;28;20453;-38
2021/12/29 06:49:33;;;;;;;61.93;32.37;;;;;;;2.72;100.00;96123.09;4975943;28;21015;-38
2021/12/29 06:52:01;;;;;;;124.60;54.67;;;;;;;2.62;100.00;96102.56;4975791;28;20984;-37
2021/12/29 06:54:29;;;;;;;76.87;41.00;;;;;;;2.75;100.00;96119.25;4975668;28;20865;-38
2021/12/29 06:56:56;;;;;;;82.40;37.60;;;;;;;2.80;100.00;96120.28;4975629;28;20447;-38
2021/12/29 06:59:23;;;;;;;34.53;23.77;;;;;;;2.85;100.00;96123.06;4974891;28;20449;-38
2021/12/29 07:01:52;;;;;;;35.33;23.43;;;;;;;2.85;100.00;96130.94;4974037;28;20437;-39
2021/12/29 07:04:20;;;;;;;14.83;8.70;;;;;;;2.85;100.00;96123.06;4973772;28;20444;-35
2021/12/29 07:06:47;;;;;;;32.37;18.07;;;;;;;2.87;100.00;96126.31;4975605;28;20448;-36
2021/12/29 07:09:14;;;;;;;23.97;12.40;;;;;;;2.90;100.00;96124.28;4975600;28;21000;-37
2021/12/29 07:11:42;;;;;;;25.50;15.40;;;;;;;2.93;100.00;96118.66;4975591;28;20448;-37
2021/12/29 07:14:09;;;;;;;17.40;11.60;;;;;;;2.94;100.00;96125.50;4975845;28;20441;-35
2021/12/29 07:16:38;;;;;;;21.33;11.20;;;;;;;2.82;100.00;96127.94;4975533;28;20453;-34
2021/12/29 07:22:06;;;;;;;17.00;10.90;;;;;;;2.62;100.00;96125.31;4974532;28;20456;-37
2021/12/29 07:24:34;;;;;;;13.27;7.60;;;;;;;2.63;100.00;96113.84;4975354;28;20955;-36
2021/12/29 07:27:02;;;;;;;32.30;16.10;;;;;;;2.61;100.00;96131.56;4975295;28;20444;-38
2021/12/29 07:29:29;;;;;;;39.37;18.47;;;;;;;2.65;100.00;96130.16;4974884;28;20499;-37
2021/12/29 07:31:58;;;;;;;18.80;9.50;;;;;;;2.65;100.00;96130.97;4975498;28;20459;-37
2021/12/29 07:34:28;;;;;;;22.00;10.70;;;;;;;2.62;100.00;96122.69;4973369;28;20448;-35
2021/12/29 07:37:00;;;;;;;18.77;12.63;;;;;;;2.67;100.00;96130.78;4971507;28;20837;-36
2021/12/29 07:39:28;;;;;;;11.40;7.77;;;;;;;2.71;100.00;96118.88;4972062;28;20952;-35
2021/12/29 07:41:58;;;;;;;14.30;8.80;;;;;;;2.75;100.00;96127.13;4974324;28;20444;-34
2021/12/29 07:44:27;;;;;;;29.33;16.27;;;;;;;2.74;100.00;96115.84;4974972;28;20948;-36
2021/12/29 07:46:57;;;;;;;30.00;15.77;;;;;;;2.77;100.00;96102.31;4974907;28;20452;-36
2021/12/29 07:49:26;;;;;;;24.37;13.13;;;;;;;2.80;100.00;96107.16;4974576;28;20484;-36
2021/12/29 07:51:55;;;;;;;12.10;7.60;;;;;;;2.78;100.00;96121.50;4974893;28;20484;-39
2021/12/29 07:54:25;;;;;;;16.23;7.90;;;;;;;2.72;100.00;96119.69;4975120;28;20448;-38
2021/12/29 07:56:52;;;;;;;20.40;8.30;;;;;;;2.77;100.00;96118.03;4974150;28;20440;-37
2021/12/29 07:59:20;;;;;;;15.07;6.83;;;;;;;2.78;100.00;96114.41;4974757;28;20800;-36
2021/12/29 08:01:49;;;;;;;16.60;10.37;;;;;;;2.64;100.00;96094.47;4972839;28;20480;-38
2021/12/29 08:04:19;;;;;;;21.27;11.00;;;;;;;2.60;100.00;96109.81;4973222;28;20992;-35
2021/12/29 08:06:48;;;;;;;13.60;5.97;;;;;;;2.56;100.00;96118.25;4970949;28;20455;-36
2021/12/29 08:09:15;;;;;;;34.60;21.00;;;;;;;2.55;100.00;96129.75;4969926;28;20483;-34
2021/12/29 08:11:42;;;;;;;16.33;10.23;;;;;;;2.52;100.00;96123.09;4973978;28;20976;-37
2021/12/29 08:14:10;;;;;;;12.77;7.90;;;;;;;2.51;100.00;96141.66;4971415;28;20447;-33
2021/12/29 08:16:37;;;;;;;14.67;9.30;;;;;;;2.58;100.00;96138.03;4973104;28;20952;-37
2021/12/29 08:19:05;;;;;;;26.10;11.67;;;;;;;2.73;100.00;96131.75;4973006;28;20438;-34
2021/12/29 08:21:32;;;;;;;13.13;8.40;;;;;;;2.79;100.00;96128.34;4972434;28;21000;-37
2021/12/29 08:24:01;;;;;;;20.07;11.23;;;;;;;2.90;100.00;96117.22;4972732;28;20464;-39
2021/12/29 08:26:28;;;;;;;12.20;7.30;;;;;;;2.98;100.00;96118.84;4973314;28;20441;-33
2021/12/29 08:28:57;;;;;;;9.33;5.80;;;;;;;2.97;100.00;96130.31;4970747;28;20452;-35
2021/12/29 08:31:25;;;;;;;7.57;5.67;;;;;;;3.04;100.00;96125.88;4972767;28;20519;-40
2021/12/29 08:33:52;;;;;;;6.97;5.00;;;;;;;3.15;100.00;96122.63;4970511;28;20436;-37
2021/12/29 08:36:19;;;;;;;9.47;6.47;;;;;;;3.24;100.00;96116.13;4972417;28;20921;-39
2021/12/29 08:38:47;;;;;;;16.70;8.77;;;;;;;3.02;100.00;96096.44;4973323;28;20440;-39
2021/12/29 08:41:15;;;;;;;10.00;5.50;;;;;;;3.10;100.00;96111.94;4974170;28;20436;-38
2021/12/29 08:43:45;;;;;;;16.60;10.70;;;;;;;3.04;100.00;96110.94;4974629;28;20444;-37
2021/12/29 08:46:12;;;;;;;15.73;7.33;;;;;;;2.88;100.00;96100.88;4974606;28;20818;-38
2021/12/29 08:48:42;;;;;;;17.10;8.63;;;;;;;2.85;100.00;96107.34;4974300;28;20907;-37
2021/12/29 08:51:10;;;;;;;10.67;6.50;;;;;;;2.96;100.00;96126.09;4974114;28;20495;-39
2021/12/29 08:53:38;;;;;;;15.43;7.60;;;;;;;3.03;100.00;96124.25;4972851;28;20456;-38
2021/12/29 08:56:07;;;;;;;16.80;8.13;;;;;;;3.02;100.00;96107.72;4974084;28;20440;-38
2021/12/29 08:58:36;;;;;;;11.10;5.80;;;;;;;3.16;100.00;96103.25;4973392;28;20858;-39
2021/12/29 09:01:04;;;;;;;27.17;12.47;;;;;;;3.22;100.00;96097.16;4973784;28;20945;-36
2021/12/29 09:03:31;;;;;;;23.77;12.70;;;;;;;3.15;100.00;96100.84;4974033;28;20441;-37
2021/12/29 09:05:59;;;;;;;18.73;10.43;;;;;;;2.97;100.00;96077.88;4974199;28;20452;-39
2021/12/29 09:08:26;;;;;;;25.60;11.60;;;;;;;3.08;100.00;96090.38;4972263;28;20456;-37
2021/12/29 09:10:54;;;;;;;16.40;10.80;;;;;;;3.06;100.00;96092.38;4970395;28;20484;-37
2021/12/29 09:13:21;;;;;;;13.97;7.57;;;;;;;3.05;100.00;96075.03;4969625;28;20506;-36
2021/12/29 09:15:53;;;;;;;38.87;19.30;;;;;;;2.92;100.00;96054.88;4962127;28;20611;-37
2021/12/29 09:18:21;;;;;;;55.73;30.67;;;;;;;3.08;100.00;96088.53;4971133;28;20459;-37
2021/12/29 09:20:52;;;;;;;40.00;21.53;;;;;;;3.16;100.00;96087.53;4967388;28;20455;-37
2021/12/29 09:23:20;;;;;;;35.30;17.53;;;;;;;3.34;100.00;96091.31;4972270;28;20812;-37
2021/12/29 09:25:48;;;;;;;28.13;17.07;;;;;;;3.75;100.00;96095.38;4974913;28;20456;-38
2021/12/29 09:28:18;;;;;;;14.83;7.30;;;;;;;3.98;100.00;96077.25;4976280;28;20440;-38
2021/12/29 09:30:49;;;;;;;10.80;6.37;;;;;;;3.90;100.00;96067.00;4976904;28;20491;-38
2021/12/29 09:33:20;;;;;;;29.80;13.10;;;;;;;3.76;100.00;96065.44;4977254;28;20433;-37
2021/12/29 09:35:48;;;;;;;27.13;17.40;;;;;;;3.64;100.00;96065.31;4976910;28;20468;-36
2021/12/29 09:38:17;;;;;;;36.37;27.80;;;;;;;3.68;100.00;96058.66;4977040;28;20440;-39
2021/12/29 09:40:46;;;;;;;16.23;12.47;;;;;;;3.69;100.00;96066.28;4977091;28;20471;-39
2021/12/29 09:43:13;;;;;;;26.70;13.93;;;;;;;3.65;100.00;96062.47;4976651;28;20452;-38
2021/12/29 09:45:42;;;;;;;27.70;18.23;;;;;;;3.67;100.00;96063.06;4977017;28;20453;-39
2021/12/29 09:48:10;;;;;;;10.73;7.60;;;;;;;3.71;100.00;96050.34;4976117;28;20440;-38
2021/12/29 09:50:39;;;;;;;32.07;20.87;;;;;;;3.66;100.00;96045.72;4975387;28;20500;-38
2021/12/29 09:53:08;;;;;;;70.20;40.57;;;;;;;3.72;100.00;96038.00;4974523;28;20472;-38
2021/12/29 09:55:36;;;;;;;33.73;22.43;;;;;;;3.76;100.00;96039.19;4974687;28;20467;-36
2021/12/29 09:58:04;;;;;;;25.10;13.47;;;;;;;3.84;100.00;96036.31;4965572;28;20795;-38
2021/12/29 10:00:33;;;;;;;21.47;12.17;;;;;;;3.86;100.00;96034.28;4956990;28;20460;-38
2021/12/29 10:03:07;;;;;;;13.17;7.53;;;;;;;3.83;100.00;96029.44;4957286;28;20808;-39
2021/12/29 10:05:36;;;;;;;16.50;12.30;;;;;;;3.81;100.00;96034.13;4957159;28;20485;-38
2021/12/29 10:08:11;;;;;;;43.07;22.03;;;;;;;3.81;100.00;96021.00;4956952;28;20456;-37
2021/12/29 10:10:41;;;;;;;9.80;5.60;;;;;;;3.74;100.00;96022.84;4957187;28;20480;-38
2021/12/29 10:13:10;;;;;;;11.10;7.90;;;;;;;3.75;100.00;96021.84;4956806;28;20914;-37
2021/12/29 10:15:40;;;;;;;11.63;6.60;;;;;;;3.81;100.00;96027.06;4957080;28;20456;-38
2021/12/29 10:18:10;;;;;;;19.80;11.37;;;;;;;3.58;100.00;96009.22;4968571;28;20456;-37
2021/12/29 10:20:46;;;;;;;20.13;11.90;;;;;;;3.62;100.00;96028.78;4965822;28;20448;-38
2021/12/29 10:23:20;;;;;;;20.90;10.20;;;;;;;3.63;100.00;96026.94;4975583;28;20447;-37
2021/12/29 10:25:48;;;;;;;26.70;14.27;;;;;;;3.62;100.00;96027.97;4975869;28;20448;-39
2021/12/29 10:28:27;;;;;;;30.20;16.83;;;;;;;3.61;100.00;96027.16;4975842;28;20448;-36
2021/12/29 10:31:01;;;;;;;37.13;22.23;;;;;;;3.63;100.00;96030.38;4975968;28;20554;-39
2021/12/29 10:33:34;;;;;;;17.47;12.63;;;;;;;3.62;100.00;96023.53;4975903;28;20457;-36
2021/12/29 10:36:12;;;;;;;16.17;8.70;;;;;;;3.62;100.00;96013.03;4975566;28;20428;-37
2021/12/29 10:38:42;;;;;;;12.07;8.53;;;;;;;3.62;100.00;96020.09;4975681;28;20929;-37
2021/12/29 10:41:09;;;;;;;10.40;6.63;;;;;;;3.56;100.00;96013.06;4975525;28;20448;-37
2021/12/29 10:43:38;;;;;;;13.80;8.73;;;;;;;3.55;100.00;96011.44;4975659;28;20451;-38
2021/12/29 10:46:06;;;;;;;14.27;8.30;;;;;;;3.41;100.00;96011.50;4975491;28;20448;-38
2021/12/29 10:48:33;;;;;;;20.87;10.53;;;;;;;3.36;100.00;96008.72;4974562;28;20451;-38
2021/12/29 10:51:04;;;;;;;16.87;10.27;;;;;;;3.33;100.00;95998.63;4974412;28;20496;-38
2021/12/29 10:53:33;;;;;;;25.10;14.70;;;;;;;3.32;100.00;96001.50;4974952;28;20479;-38
2021/12/29 10:56:02;;;;;;;31.77;13.77;;;;;;;3.35;100.00;95993.97;4974675;28;20452;-37
2021/12/29 10:58:32;;;;;;;16.83;10.10;;;;;;;3.36;100.00;95997.44;4975693;28;20448;-38
2021/12/29 11:01:07;;;;;;;23.70;12.07;;;;;;;3.38;100.00;95998.81;4975064;28;20534;-39
2021/12/29 11:03:47;;;;;;;14.57;7.67;;;;;;;3.44;100.00;95997.16;4975476;28;20432;-36
2021/12/29 11:06:18;;;;;;;21.33;10.67;;;;;;;3.50;100.00;95993.69;4973691;28;20955;-38
2021/12/29 11:08:52;;;;;;;23.87;11.63;;;;;;;3.53;100.00;95993.31;4974470;28;20449;-34
2021/12/29 11:11:26;;;;;;;17.97;10.83;;;;;;;3.57;100.00;95994.50;4975028;28;20530;-37
2021/12/29 11:13:59;;;;;;;18.10;9.90;;;;;;;3.57;100.00;95986.63;4975306;28;20471;-36
2021/12/29 11:16:27;;;;;;;19.83;9.30;;;;;;;3.56;100.00;95998.13;4975165;28;20495;-38
2021/12/29 11:18:58;;;;;;;23.90;12.30;;;;;;;3.61;100.00;95985.16;4974957;28;20463;-38
2021/12/29 11:21:37;;;;;;;21.37;11.37;;;;;;;3.59;100.00;95992.47;4974939;28;20811;-36
2021/12/29 11:24:17;;;;;;;15.90;10.17;;;;;;;3.52;100.00;95978.56;4973944;28;20805;-38
2021/12/29 11:26:48;;;;;;;18.93;10.80;;;;;;;3.61;100.00;95979.09;4975048;28;20460;-38
2021/12/29 11:29:18;;;;;;;23.70;12.93;;;;;;;3.59;100.00;95976.72;4974813;28;20452;-37
2021/12/29 11:31:52;;;;;;;22.47;12.30;;;;;;;3.65;100.00;95985.53;4974712;28;20495;-38
2021/12/29 11:34:25;;;;;;;20.63;11.73;;;;;;;3.67;100.00;95976.44;4974707;28;20439;-37
2021/12/29 11:37:07;;;;;;;16.43;9.10;;;;;;;3.69;100.00;95982.28;4974524;28;20444;-38
2021/12/29 11:39:38;;;;;;;14.07;9.57;;;;;;;3.69;100.00;95979.66;4974717;28;20424;-36
2021/12/29 11:42:09;;;;;;;21.97;11.67;;;;;;;3.72;100.00;95982.88;4974694;28;20443;-36